sensor_id;sensor_type;location;lat;lon;timestamp;temperature;humidity
48535;DHT22;34323;52.022;5.686;2023-03-01T00:01:58;3.70;99.90
48535;DHT22;34323;52.022;5.686;2023-03-01T00:04:24;3.90;99.90
48535;DHT22;34323;52.022;5.686;2023-03-01T00:06:49;3.90;99.90
48535;DHT22;34323;52.022;5.686;2023-03-01T00:09:16;3.60;99.90
48535;DHT22;34323;52.022;5.686;2023-03-01T00:11:42;3.80;99.90
48535;DHT22;34323;52.022;5.686;2023-03-01T00:14:08;3.60;99.90
48535;DHT22;34323;52.022;5.686;2023-03-01T00:16:37;3.70;99.90
48535;DHT22;34323;52.022;5.686;2023-03-01T00:19:05;3.60;99.90
48535;DHT22;34323;52.022;5.686;2023-03-01T00:21:31;3.60;99.90
48535;DHT22;34323;52.022;5.686;2023-03-01T00:23:57;3.80;99.90
48535;DHT22;34323;52.022;5.686;2023-03-01T00:26:24;4.00;99.90
48535;DHT22;34323;52.022;5.686;2023-03-01T00:28:51;4.10;99.90
48535;DHT22;34323;52.022;5.686;2023-03-01T00:31:19;4.10;99.90
48535;DHT22;34323;52.022;5.686;2023-03-01T00:33:45;4.30;99.90
48535;DHT22;34323;52.022;5.686;2023-03-01T00:36:13;4.20;99.90
48535;DHT22;34323;52.022;5.686;2023-03-01T00:38:41;3.90;99.90
48535;DHT22;34323;52.022;5.686;2023-03-01T00:41:10;3.90;99.90
48535;DHT22;34323;52.022;5.686;2023-03-01T00:43:36;3.90;99.90
48535;DHT22;34323;52.022;5.686;2023-03-01T00:46:10;4.00;99.90
48535;DHT22;34323;52.022;5.686;2023-03-01T00:48:36;4.10;99.90
48535;DHT22;34323;52.022;5.686;2023-03-01T00:51:25;4.10;99.90
48535;DHT22;34323;52.022;5.686;2023-03-01T00:53:53;3.90;99.90
48535;DHT22;34323;52.022;5.686;2023-03-01T00:56:19;3.90;99.90
48535;DHT22;34323;52.022;5.686;2023-03-01T00:58:45;3.90;99.90
48535;DHT22;34323;52.022;5.686;2023-03-01T01:03:50;3.80;99.90
48535;DHT22;34323;52.022;5.686;2023-03-01T01:06:22;3.80;99.90
48535;DHT22;34323;52.022;5.686;2023-03-01T01:08:48;3.80;99.90
48535;DHT22;34323;52.022;5.686;2023-03-01T01:11:15;3.70;99.90
48535;DHT22;34323;52.022;5.686;2023-03-01T01:13:41;3.60;99.90
48535;DHT22;34323;52.022;5.686;2023-03-01T01:16:08;3.40;99.90
48535;DHT22;34323;52.022;5.686;2023-03-01T01:18:33;3.40;99.90
48535;DHT22;34323;52.022;5.686;2023-03-01T01:21:05;3.30;99.90
48535;DHT22;34323;52.022;5.686;2023-03-01T01:23:31;3.30;99.90
48535;DHT22;34323;52.022;5.686;2023-03-01T01:25:56;3.20;99.90
48535;DHT22;34323;52.022;5.686;2023-03-01T01:28:22;3.30;99.90
48535;DHT22;34323;52.022;5.686;2023-03-01T01:30:47;3.20;99.90
48535;DHT22;34323;52.022;5.686;2023-03-01T01:33:13;3.30;99.90
48535;DHT22;34323;52.022;5.686;2023-03-01T01:35:38;3.30;99.90
48535;DHT22;34323;52.022;5.686;2023-03-01T01:38:04;3.30;99.90
48535;DHT22;34323;52.022;5.686;2023-03-01T01:40:29;3.40;99.90
48535;DHT22;34323;52.022;5.686;2023-03-01T01:42:55;3.50;99.90
48535;DHT22;34323;52.022;5.686;2023-03-01T01:45:33;3.50;99.90
48535;DHT22;34323;52.022;5.686;2023-03-01T01:48:06;3.50;99.90
48535;DHT22;34323;52.022;5.686;2023-03-01T01:50:35;3.40;99.90
48535;DHT22;34323;52.022;5.686;2023-03-01T01:53:09;3.40;99.90
48535;DHT22;34323;52.022;5.686;2023-03-01T01:55:37;3.30;99.90
48535;DHT22;34323;52.022;5.686;2023-03-01T01:58:06;3.20;99.90
48535;DHT22;34323;52.022;5.686;2023-03-01T02:00:33;3.20;99.90
48535;DHT22;34323;52.022;5.686;2023-03-01T02:03:06;3.30;99.90
48535;DHT22;34323;52.022;5.686;2023-03-01T02:05:47;3.10;99.90
48535;DHT22;34323;52.022;5.686;2023-03-01T02:08:17;3.10;99.90
48535;DHT22;34323;52.022;5.686;2023-03-01T02:10:44;3.30;99.90
48535;DHT22;34323;52.022;5.686;2023-03-01T02:13:10;3.30;99.90
48535;DHT22;34323;52.022;5.686;2023-03-01T02:15:37;3.10;99.90
48535;DHT22;34323;52.022;5.686;2023-03-01T02:18:17;3.20;99.90
48535;DHT22;34323;52.022;5.686;2023-03-01T02:23:44;3.10;99.90
48535;DHT22;34323;52.022;5.686;2023-03-01T02:29:07;3.00;99.90
48535;DHT22;34323;52.022;5.686;2023-03-01T02:31:34;3.10;99.90
48535;DHT22;34323;52.022;5.686;2023-03-01T02:34:32;3.20;99.90
48535;DHT22;34323;52.022;5.686;2023-03-01T02:37:17;3.30;99.90
48535;DHT22;34323;52.022;5.686;2023-03-01T02:40:14;3.30;99.90
48535;DHT22;34323;52.022;5.686;2023-03-01T02:43:04;3.30;99.90
48535;DHT22;34323;52.022;5.686;2023-03-01T02:45:58;3.40;99.90
48535;DHT22;34323;52.022;5.686;2023-03-01T02:48:28;3.50;99.90
48535;DHT22;34323;52.022;5.686;2023-03-01T02:51:11;3.60;99.90
48535;DHT22;34323;52.022;5.686;2023-03-01T02:54:15;3.70;99.90
48535;DHT22;34323;52.022;5.686;2023-03-01T03:00:33;3.20;99.90
48535;DHT22;34323;52.022;5.686;2023-03-01T03:03:37;3.20;99.90
48535;DHT22;34323;52.022;5.686;2023-03-01T03:06:48;2.90;99.90
48535;DHT22;34323;52.022;5.686;2023-03-01T03:12:13;2.90;99.90
48535;DHT22;34323;52.022;5.686;2023-03-01T03:15:00;2.80;99.90
48535;DHT22;34323;52.022;5.686;2023-03-01T03:17:56;3.00;99.90
48535;DHT22;34323;52.022;5.686;2023-03-01T03:23:45;2.90;99.90
48535;DHT22;34323;52.022;5.686;2023-03-01T03:26:45;3.00;99.90
48535;DHT22;34323;52.022;5.686;2023-03-01T03:32:31;2.60;99.90
48535;DHT22;34323;52.022;5.686;2023-03-01T03:35:28;2.60;99.90
48535;DHT22;34323;52.022;5.686;2023-03-01T03:38:17;2.80;99.90
48535;DHT22;34323;52.022;5.686;2023-03-01T03:47:37;3.10;99.90
48535;DHT22;34323;52.022;5.686;2023-03-01T03:50:56;3.10;99.90
48535;DHT22;34323;52.022;5.686;2023-03-01T03:53:42;3.10;99.90
48535;DHT22;34323;52.022;5.686;2023-03-01T03:56:34;3.30;99.90
48535;DHT22;34323;52.022;5.686;2023-03-01T03:59:21;3.50;99.90
48535;DHT22;34323;52.022;5.686;2023-03-01T04:02:49;3.50;99.90
48535;DHT22;34323;52.022;5.686;2023-03-01T04:05:44;3.50;99.90
48535;DHT22;34323;52.022;5.686;2023-03-01T04:08:42;3.30;99.90
48535;DHT22;34323;52.022;5.686;2023-03-01T04:11:35;3.30;99.90
48535;DHT22;34323;52.022;5.686;2023-03-01T04:14:43;3.20;99.90
48535;DHT22;34323;52.022;5.686;2023-03-01T04:17:21;3.30;99.90
48535;DHT22;34323;52.022;5.686;2023-03-01T04:28:44;3.30;99.90
48535;DHT22;34323;52.022;5.686;2023-03-01T04:31:56;3.40;99.90
48535;DHT22;34323;52.022;5.686;2023-03-01T04:34:52;3.30;99.90
48535;DHT22;34323;52.022;5.686;2023-03-01T04:37:45;3.30;99.90
48535;DHT22;34323;52.022;5.686;2023-03-01T04:40:45;3.20;99.90
48535;DHT22;34323;52.022;5.686;2023-03-01T04:46:16;2.90;99.90
48535;DHT22;34323;52.022;5.686;2023-03-01T04:49:38;2.70;99.90
48535;DHT22;34323;52.022;5.686;2023-03-01T04:52:21;2.80;99.90
48535;DHT22;34323;52.022;5.686;2023-03-01T04:55:13;2.60;99.90
48535;DHT22;34323;52.022;5.686;2023-03-01T04:57:54;2.50;99.90
48535;DHT22;34323;52.022;5.686;2023-03-01T05:00:59;2.40;99.90
48535;DHT22;34323;52.022;5.686;2023-03-01T05:04:04;2.40;99.90
48535;DHT22;34323;52.022;5.686;2023-03-01T05:09:45;2.70;99.90
48535;DHT22;34323;52.022;5.686;2023-03-01T05:12:57;2.50;99.90
48535;DHT22;34323;52.022;5.686;2023-03-01T05:15:30;2.50;99.90
48535;DHT22;34323;52.022;5.686;2023-03-01T05:18:12;2.20;99.90
48535;DHT22;34323;52.022;5.686;2023-03-01T05:21:19;2.40;99.90
48535;DHT22;34323;52.022;5.686;2023-03-01T05:24:14;2.50;99.90
48535;DHT22;34323;52.022;5.686;2023-03-01T05:26:49;2.40;99.90
48535;DHT22;34323;52.022;5.686;2023-03-01T05:29:33;2.50;99.90
48535;DHT22;34323;52.022;5.686;2023-03-01T05:32:26;2.70;99.90
48535;DHT22;34323;52.022;5.686;2023-03-01T05:35:09;2.80;99.90
48535;DHT22;34323;52.022;5.686;2023-03-01T05:41:13;3.10;99.90
48535;DHT22;34323;52.022;5.686;2023-03-01T05:43:52;3.10;99.90
48535;DHT22;34323;52.022;5.686;2023-03-01T05:46:42;3.10;99.90
48535;DHT22;34323;52.022;5.686;2023-03-01T05:49:14;3.10;99.90
48535;DHT22;34323;52.022;5.686;2023-03-01T05:55:35;2.90;99.90
48535;DHT22;34323;52.022;5.686;2023-03-01T06:04:08;2.90;99.90
48535;DHT22;34323;52.022;5.686;2023-03-01T06:06:45;2.90;99.90
48535;DHT22;34323;52.022;5.686;2023-03-01T06:09:50;3.00;99.90
48535;DHT22;34323;52.022;5.686;2023-03-01T06:12:24;3.10;99.90
48535;DHT22;34323;52.022;5.686;2023-03-01T06:15:09;3.00;99.90
48535;DHT22;34323;52.022;5.686;2023-03-01T06:17:36;3.10;99.90
48535;DHT22;34323;52.022;5.686;2023-03-01T06:20:19;3.00;99.90
48535;DHT22;34323;52.022;5.686;2023-03-01T06:22:59;2.90;99.90
48535;DHT22;34323;52.022;5.686;2023-03-01T06:25:44;2.90;99.90
48535;DHT22;34323;52.022;5.686;2023-03-01T06:31:33;2.80;99.90
48535;DHT22;34323;52.022;5.686;2023-03-01T06:34:51;2.60;99.90
48535;DHT22;34323;52.022;5.686;2023-03-01T06:37:34;2.60;99.90
48535;DHT22;34323;52.022;5.686;2023-03-01T06:40:23;2.70;99.90
48535;DHT22;34323;52.022;5.686;2023-03-01T06:43:01;2.80;99.90
48535;DHT22;34323;52.022;5.686;2023-03-01T06:48:34;2.80;99.90
48535;DHT22;34323;52.022;5.686;2023-03-01T06:51:06;3.00;99.90
48535;DHT22;34323;52.022;5.686;2023-03-01T06:53:48;3.20;99.90
48535;DHT22;34323;52.022;5.686;2023-03-01T07:00:01;3.10;99.90
48535;DHT22;34323;52.022;5.686;2023-03-01T07:06:10;3.10;99.90
48535;DHT22;34323;52.022;5.686;2023-03-01T07:11:56;3.40;99.90
48535;DHT22;34323;52.022;5.686;2023-03-01T07:17:07;3.80;99.90
48535;DHT22;34323;52.022;5.686;2023-03-01T07:30:00;4.10;99.90
48535;DHT22;34323;52.022;5.686;2023-03-01T07:33:06;4.10;99.90
48535;DHT22;34323;52.022;5.686;2023-03-01T07:36:00;4.00;99.90
48535;DHT22;34323;52.022;5.686;2023-03-01T07:45:17;4.40;99.90
48535;DHT22;34323;52.022;5.686;2023-03-01T07:48:00;4.60;99.90
48535;DHT22;34323;52.022;5.686;2023-03-01T07:54:13;4.80;99.90
48535;DHT22;34323;52.022;5.686;2023-03-01T07:57:13;5.00;99.90
48535;DHT22;34323;52.022;5.686;2023-03-01T08:00:17;4.80;99.90
48535;DHT22;34323;52.022;5.686;2023-03-01T08:03:14;4.30;99.90
48535;DHT22;34323;52.022;5.686;2023-03-01T08:09:14;4.10;99.90
48535;DHT22;34323;52.022;5.686;2023-03-01T08:12:08;4.30;99.90
48535;DHT22;34323;52.022;5.686;2023-03-01T08:18:00;4.30;99.90
48535;DHT22;34323;52.022;5.686;2023-03-01T08:24:17;4.50;99.90
48535;DHT22;34323;52.022;5.686;2023-03-01T08:27:28;4.60;99.90
48535;DHT22;34323;52.022;5.686;2023-03-01T08:30:34;4.80;99.90
48535;DHT22;34323;52.022;5.686;2023-03-01T08:33:16;5.00;99.90
48535;DHT22;34323;52.022;5.686;2023-03-01T08:36:11;5.20;99.90
48535;DHT22;34323;52.022;5.686;2023-03-01T08:39:05;5.40;99.90
48535;DHT22;34323;52.022;5.686;2023-03-01T08:42:18;5.90;99.90
48535;DHT22;34323;52.022;5.686;2023-03-01T08:48:15;6.10;99.90
48535;DHT22;34323;52.022;5.686;2023-03-01T08:51:26;5.70;99.90
48535;DHT22;34323;52.022;5.686;2023-03-01T08:54:46;5.70;99.90
48535;DHT22;34323;52.022;5.686;2023-03-01T08:57:50;5.80;99.90
48535;DHT22;34323;52.022;5.686;2023-03-01T09:00:31;6.10;99.90
48535;DHT22;34323;52.022;5.686;2023-03-01T09:03:32;6.40;99.90
48535;DHT22;34323;52.022;5.686;2023-03-01T09:10:02;7.20;99.90
48535;DHT22;34323;52.022;5.686;2023-03-01T09:12:50;7.00;99.90
48535;DHT22;34323;52.022;5.686;2023-03-01T09:15:45;7.30;99.90
48535;DHT22;34323;52.022;5.686;2023-03-01T09:21:49;8.00;99.90
48535;DHT22;34323;52.022;5.686;2023-03-01T09:24:36;8.10;99.90
48535;DHT22;34323;52.022;5.686;2023-03-01T09:30:39;8.40;99.90
48535;DHT22;34323;52.022;5.686;2023-03-01T09:34:03;8.30;99.90
48535;DHT22;34323;52.022;5.686;2023-03-01T09:44:01;8.80;99.90
48535;DHT22;34323;52.022;5.686;2023-03-01T09:46:52;8.50;99.90
48535;DHT22;34323;52.022;5.686;2023-03-01T10:06:36;8.50;99.90
48535;DHT22;34323;52.022;5.686;2023-03-01T10:10:07;8.90;99.90
48535;DHT22;34323;52.022;5.686;2023-03-01T10:22:40;9.50;99.90
48535;DHT22;34323;52.022;5.686;2023-03-01T10:29:23;9.80;99.90
48535;DHT22;34323;52.022;5.686;2023-03-01T10:32:26;10.00;99.90
48535;DHT22;34323;52.022;5.686;2023-03-01T10:35:27;10.40;99.90
48535;DHT22;34323;52.022;5.686;2023-03-01T10:47:48;11.10;99.90
48535;DHT22;34323;52.022;5.686;2023-03-01T10:50:35;11.40;99.90
48535;DHT22;34323;52.022;5.686;2023-03-01T10:57:03;11.60;99.90
48535;DHT22;34323;52.022;5.686;2023-03-01T10:59:33;12.00;99.90
48535;DHT22;34323;52.022;5.686;2023-03-01T11:02:36;12.20;99.90
48535;DHT22;34323;52.022;5.686;2023-03-01T11:05:41;12.20;99.90
48535;DHT22;34323;52.022;5.686;2023-03-01T11:11:38;12.60;99.70
48535;DHT22;34323;52.022;5.686;2023-03-01T11:18:18;12.80;99.60
48535;DHT22;34323;52.022;5.686;2023-03-01T11:21:24;13.00;98.90
48535;DHT22;34323;52.022;5.686;2023-03-01T11:27:08;13.60;98.20
48535;DHT22;34323;52.022;5.686;2023-03-01T11:29:40;13.80;98.90
48535;DHT22;34323;52.022;5.686;2023-03-01T11:32:10;14.20;98.10
48535;DHT22;34323;52.022;5.686;2023-03-01T11:35:05;14.20;97.60
48535;DHT22;34323;52.022;5.686;2023-03-01T11:40:27;14.00;97.80
48535;DHT22;34323;52.022;5.686;2023-03-01T11:45:34;14.10;97.50
48535;DHT22;34323;52.022;5.686;2023-03-01T11:48:13;14.30;97.60
48535;DHT22;34323;52.022;5.686;2023-03-01T11:50:49;14.50;96.90
48535;DHT22;34323;52.022;5.686;2023-03-01T11:56:31;14.20;96.70
48535;DHT22;34323;52.022;5.686;2023-03-01T12:05:02;15.00;97.10
48535;DHT22;34323;52.022;5.686;2023-03-01T12:13:45;15.60;96.10
48535;DHT22;34323;52.022;5.686;2023-03-01T12:16:23;15.60;96.60
48535;DHT22;34323;52.022;5.686;2023-03-01T12:21:43;15.70;96.30
48535;DHT22;34323;52.022;5.686;2023-03-01T12:26:57;15.60;96.40
48535;DHT22;34323;52.022;5.686;2023-03-01T12:29:32;15.90;95.70
48535;DHT22;34323;52.022;5.686;2023-03-01T12:35:01;14.80;95.90
48535;DHT22;34323;52.022;5.686;2023-03-01T12:42:55;15.80;95.50
48535;DHT22;34323;52.022;5.686;2023-03-01T12:45:48;15.10;95.40
48535;DHT22;34323;52.022;5.686;2023-03-01T12:48:37;15.10;95.40
48535;DHT22;34323;52.022;5.686;2023-03-01T12:51:15;15.50;95.40
48535;DHT22;34323;52.022;5.686;2023-03-01T12:53:46;15.60;95.10
48535;DHT22;34323;52.022;5.686;2023-03-01T12:56:17;15.40;95.20
48535;DHT22;34323;52.022;5.686;2023-03-01T13:02:00;15.60;95.90
48535;DHT22;34323;52.022;5.686;2023-03-01T13:10:17;16.50;94.30
48535;DHT22;34323;52.022;5.686;2023-03-01T13:12:46;16.60;94.20
48535;DHT22;34323;52.022;5.686;2023-03-01T13:15:25;17.10;95.30
48535;DHT22;34323;52.022;5.686;2023-03-01T13:20:53;17.50;94.80
48535;DHT22;34323;52.022;5.686;2023-03-01T13:31:10;20.00;94.20
48535;DHT22;34323;52.022;5.686;2023-03-01T13:33:41;20.70;93.00
48535;DHT22;34323;52.022;5.686;2023-03-01T13:36:08;21.20;93.30
48535;DHT22;34323;52.022;5.686;2023-03-01T13:46:44;22.80;92.20
48535;DHT22;34323;52.022;5.686;2023-03-01T13:49:14;21.70;91.50
48535;DHT22;34323;52.022;5.686;2023-03-01T13:51:41;20.70;91.20
48535;DHT22;34323;52.022;5.686;2023-03-01T13:54:11;21.40;91.80
48535;DHT22;34323;52.022;5.686;2023-03-01T13:56:37;23.40;91.50
48535;DHT22;34323;52.022;5.686;2023-03-01T13:59:21;23.40;90.80
48535;DHT22;34323;52.022;5.686;2023-03-01T14:01:55;24.50;91.20
48535;DHT22;34323;52.022;5.686;2023-03-01T14:04:32;24.60;89.10
48535;DHT22;34323;52.022;5.686;2023-03-01T14:07:19;24.50;89.50
48535;DHT22;34323;52.022;5.686;2023-03-01T14:09:47;23.80;89.00
48535;DHT22;34323;52.022;5.686;2023-03-01T14:15:02;23.50;90.80
48535;DHT22;34323;52.022;5.686;2023-03-01T14:20:28;23.40;88.40
48535;DHT22;34323;52.022;5.686;2023-03-01T14:22:58;22.70;88.80
48535;DHT22;34323;52.022;5.686;2023-03-01T14:25:26;23.10;88.30
48535;DHT22;34323;52.022;5.686;2023-03-01T14:30:36;24.40;89.10
48535;DHT22;34323;52.022;5.686;2023-03-01T14:33:05;24.10;87.70
48535;DHT22;34323;52.022;5.686;2023-03-01T14:35:34;22.90;88.30
48535;DHT22;34323;52.022;5.686;2023-03-01T14:38:00;23.40;88.90
48535;DHT22;34323;52.022;5.686;2023-03-01T14:40:32;23.40;88.80
48535;DHT22;34323;52.022;5.686;2023-03-01T14:43:00;23.50;87.60
48535;DHT22;34323;52.022;5.686;2023-03-01T14:45:29;22.30;87.40
48535;DHT22;34323;52.022;5.686;2023-03-01T14:47:59;21.70;88.80
48535;DHT22;34323;52.022;5.686;2023-03-01T14:50:29;21.20;89.40
48535;DHT22;34323;52.022;5.686;2023-03-01T14:53:00;21.30;88.50
48535;DHT22;34323;52.022;5.686;2023-03-01T14:55:33;21.50;87.90
48535;DHT22;34323;52.022;5.686;2023-03-01T14:58:02;21.40;87.80
48535;DHT22;34323;52.022;5.686;2023-03-01T15:00:29;21.30;88.30
48535;DHT22;34323;52.022;5.686;2023-03-01T15:02:57;20.30;87.40
48535;DHT22;34323;52.022;5.686;2023-03-01T15:05:31;19.90;90.00
48535;DHT22;34323;52.022;5.686;2023-03-01T15:08:01;19.80;88.60
48535;DHT22;34323;52.022;5.686;2023-03-01T15:10:33;19.30;90.20
48535;DHT22;34323;52.022;5.686;2023-03-01T15:13:24;19.20;90.40
48535;DHT22;34323;52.022;5.686;2023-03-01T15:15:51;19.20;90.00
48535;DHT22;34323;52.022;5.686;2023-03-01T15:18:26;19.40;89.90
48535;DHT22;34323;52.022;5.686;2023-03-01T15:20:52;19.30;89.40
48535;DHT22;34323;52.022;5.686;2023-03-01T15:23:29;18.70;89.50
48535;DHT22;34323;52.022;5.686;2023-03-01T15:25:56;19.20;90.10
48535;DHT22;34323;52.022;5.686;2023-03-01T15:28:34;19.70;88.10
48535;DHT22;34323;52.022;5.686;2023-03-01T15:31:27;19.70;88.90
48535;DHT22;34323;52.022;5.686;2023-03-01T15:34:27;19.50;90.00
48535;DHT22;34323;52.022;5.686;2023-03-01T15:36:54;18.60;89.70
48535;DHT22;34323;52.022;5.686;2023-03-01T15:39:43;18.80;90.00
48535;DHT22;34323;52.022;5.686;2023-03-01T15:47:49;19.40;90.80
48535;DHT22;34323;52.022;5.686;2023-03-01T15:50:21;19.30;90.50
48535;DHT22;34323;52.022;5.686;2023-03-01T15:52:47;19.00;90.40
48535;DHT22;34323;52.022;5.686;2023-03-01T15:55:28;19.30;89.20
48535;DHT22;34323;52.022;5.686;2023-03-01T15:58:04;18.20;90.30
48535;DHT22;34323;52.022;5.686;2023-03-01T16:00:30;17.60;90.20
48535;DHT22;34323;52.022;5.686;2023-03-01T16:02:56;17.60;90.50
48535;DHT22;34323;52.022;5.686;2023-03-01T16:05:27;17.80;90.90
48535;DHT22;34323;52.022;5.686;2023-03-01T16:07:54;17.50;90.80
48535;DHT22;34323;52.022;5.686;2023-03-01T16:10:20;16.80;91.00
48535;DHT22;34323;52.022;5.686;2023-03-01T16:12:46;16.40;90.50
48535;DHT22;34323;52.022;5.686;2023-03-01T16:15:19;16.40;91.10
48535;DHT22;34323;52.022;5.686;2023-03-01T16:17:46;15.60;91.30
48535;DHT22;34323;52.022;5.686;2023-03-01T16:20:12;15.50;91.70
48535;DHT22;34323;52.022;5.686;2023-03-01T16:22:44;15.40;91.50
48535;DHT22;34323;52.022;5.686;2023-03-01T16:25:11;15.30;92.10
48535;DHT22;34323;52.022;5.686;2023-03-01T16:27:37;15.20;91.90
48535;DHT22;34323;52.022;5.686;2023-03-01T16:30:05;14.90;92.20
48535;DHT22;34323;52.022;5.686;2023-03-01T16:32:31;14.80;92.40
48535;DHT22;34323;52.022;5.686;2023-03-01T16:34:57;14.70;92.80
48535;DHT22;34323;52.022;5.686;2023-03-01T16:37:22;14.40;92.60
48535;DHT22;34323;52.022;5.686;2023-03-01T16:39:48;14.00;92.80
48535;DHT22;34323;52.022;5.686;2023-03-01T16:42:17;13.80;93.10
48535;DHT22;34323;52.022;5.686;2023-03-01T16:44:43;13.50;92.80
48535;DHT22;34323;52.022;5.686;2023-03-01T16:47:08;13.20;93.00
48535;DHT22;34323;52.022;5.686;2023-03-01T16:49:34;13.00;93.60
48535;DHT22;34323;52.022;5.686;2023-03-01T16:51:59;12.90;94.00
48535;DHT22;34323;52.022;5.686;2023-03-01T16:54:25;12.90;94.10
48535;DHT22;34323;52.022;5.686;2023-03-01T16:56:50;12.80;94.10
48535;DHT22;34323;52.022;5.686;2023-03-01T16:59:16;12.50;94.60
48535;DHT22;34323;52.022;5.686;2023-03-01T17:01:43;12.30;94.50
48535;DHT22;34323;52.022;5.686;2023-03-01T17:04:11;12.10;94.80
48535;DHT22;34323;52.022;5.686;2023-03-01T17:06:37;11.70;95.00
48535;DHT22;34323;52.022;5.686;2023-03-01T17:09:03;11.60;95.40
48535;DHT22;34323;52.022;5.686;2023-03-01T17:11:28;11.70;95.40
48535;DHT22;34323;52.022;5.686;2023-03-01T17:13:54;11.60;95.70
48535;DHT22;34323;52.022;5.686;2023-03-01T17:16:20;11.20;95.70
48535;DHT22;34323;52.022;5.686;2023-03-01T17:18:46;10.70;96.10
48535;DHT22;34323;52.022;5.686;2023-03-01T17:21:12;10.50;96.20
48535;DHT22;34323;52.022;5.686;2023-03-01T17:23:41;10.40;96.40
48535;DHT22;34323;52.022;5.686;2023-03-01T17:26:07;10.20;96.50
48535;DHT22;34323;52.022;5.686;2023-03-01T17:28:34;10.10;96.80
48535;DHT22;34323;52.022;5.686;2023-03-01T17:31:01;9.70;97.20
48535;DHT22;34323;52.022;5.686;2023-03-01T17:33:27;9.20;97.40
48535;DHT22;34323;52.022;5.686;2023-03-01T17:35:55;9.20;97.60
48535;DHT22;34323;52.022;5.686;2023-03-01T17:38:21;9.20;97.70
48535;DHT22;34323;52.022;5.686;2023-03-01T17:40:46;9.20;97.80
48535;DHT22;34323;52.022;5.686;2023-03-01T17:43:13;8.90;97.70
48535;DHT22;34323;52.022;5.686;2023-03-01T17:45:39;8.70;98.10
48535;DHT22;34323;52.022;5.686;2023-03-01T17:48:05;8.80;98.40
48535;DHT22;34323;52.022;5.686;2023-03-01T17:50:32;8.70;98.60
48535;DHT22;34323;52.022;5.686;2023-03-01T17:52:57;8.40;98.90
48535;DHT22;34323;52.022;5.686;2023-03-01T17:55:23;8.10;99.10
48535;DHT22;34323;52.022;5.686;2023-03-01T17:57:49;8.10;99.30
48535;DHT22;34323;52.022;5.686;2023-03-01T18:00:15;8.20;99.30
48535;DHT22;34323;52.022;5.686;2023-03-01T18:02:42;8.10;99.40
48535;DHT22;34323;52.022;5.686;2023-03-01T18:05:08;8.30;99.40
48535;DHT22;34323;52.022;5.686;2023-03-01T18:07:34;8.40;99.50
48535;DHT22;34323;52.022;5.686;2023-03-01T18:09:59;8.40;99.50
48535;DHT22;34323;52.022;5.686;2023-03-01T18:12:25;8.20;99.40
48535;DHT22;34323;52.022;5.686;2023-03-01T18:14:50;8.10;99.50
48535;DHT22;34323;52.022;5.686;2023-03-01T18:17:19;8.10;99.50
48535;DHT22;34323;52.022;5.686;2023-03-01T18:19:45;8.00;99.50
48535;DHT22;34323;52.022;5.686;2023-03-01T18:22:11;8.00;99.70
48535;DHT22;34323;52.022;5.686;2023-03-01T18:24:37;7.90;99.90
48535;DHT22;34323;52.022;5.686;2023-03-01T18:27:03;7.80;99.90
48535;DHT22;34323;52.022;5.686;2023-03-01T18:29:29;7.70;99.90
48535;DHT22;34323;52.022;5.686;2023-03-01T18:31:54;7.50;99.90
48535;DHT22;34323;52.022;5.686;2023-03-01T18:34:20;7.30;99.90
48535;DHT22;34323;52.022;5.686;2023-03-01T18:36:45;7.20;99.90
48535;DHT22;34323;52.022;5.686;2023-03-01T18:39:11;7.10;99.90
48535;DHT22;34323;52.022;5.686;2023-03-01T18:41:39;7.10;99.90
48535;DHT22;34323;52.022;5.686;2023-03-01T18:44:05;7.00;99.90
48535;DHT22;34323;52.022;5.686;2023-03-01T18:46:31;6.90;99.90
48535;DHT22;34323;52.022;5.686;2023-03-01T18:48:57;6.80;99.90
48535;DHT22;34323;52.022;5.686;2023-03-01T18:51:26;6.70;99.90
48535;DHT22;34323;52.022;5.686;2023-03-01T18:53:52;6.90;99.90
48535;DHT22;34323;52.022;5.686;2023-03-01T18:56:18;7.10;99.90
48535;DHT22;34323;52.022;5.686;2023-03-01T18:58:43;7.30;99.90
48535;DHT22;34323;52.022;5.686;2023-03-01T19:01:29;7.40;99.90
48535;DHT22;34323;52.022;5.686;2023-03-01T19:03:55;7.20;99.90
48535;DHT22;34323;52.022;5.686;2023-03-01T19:06:22;7.10;99.90
48535;DHT22;34323;52.022;5.686;2023-03-01T19:08:48;7.00;99.90
48535;DHT22;34323;52.022;5.686;2023-03-01T19:11:14;6.80;99.90
48535;DHT22;34323;52.022;5.686;2023-03-01T19:13:42;6.80;99.90
48535;DHT22;34323;52.022;5.686;2023-03-01T19:16:15;6.70;99.90
48535;DHT22;34323;52.022;5.686;2023-03-01T19:18:43;6.80;99.90
48535;DHT22;34323;52.022;5.686;2023-03-01T19:21:15;6.90;99.90
48535;DHT22;34323;52.022;5.686;2023-03-01T19:23:41;6.80;99.90
48535;DHT22;34323;52.022;5.686;2023-03-01T19:26:10;6.60;99.90
48535;DHT22;34323;52.022;5.686;2023-03-01T19:28:37;6.30;99.90
48535;DHT22;34323;52.022;5.686;2023-03-01T19:31:06;6.20;99.90
48535;DHT22;34323;52.022;5.686;2023-03-01T19:33:33;6.10;99.90
48535;DHT22;34323;52.022;5.686;2023-03-01T19:36:00;6.10;99.90
48535;DHT22;34323;52.022;5.686;2023-03-01T19:38:26;6.30;99.90
48535;DHT22;34323;52.022;5.686;2023-03-01T19:40:53;6.40;99.90
48535;DHT22;34323;52.022;5.686;2023-03-01T19:43:18;6.40;99.90
48535;DHT22;34323;52.022;5.686;2023-03-01T19:45:46;6.30;99.90
48535;DHT22;34323;52.022;5.686;2023-03-01T19:48:14;6.30;99.90
48535;DHT22;34323;52.022;5.686;2023-03-01T19:50:42;6.20;99.90
48535;DHT22;34323;52.022;5.686;2023-03-01T19:53:07;6.20;99.90
48535;DHT22;34323;52.022;5.686;2023-03-01T19:55:35;6.30;99.90
48535;DHT22;34323;52.022;5.686;2023-03-01T19:58:01;6.40;99.90
48535;DHT22;34323;52.022;5.686;2023-03-01T20:00:27;6.40;99.90
48535;DHT22;34323;52.022;5.686;2023-03-01T20:02:52;6.40;99.90
48535;DHT22;34323;52.022;5.686;2023-03-01T20:05:18;6.30;99.90
48535;DHT22;34323;52.022;5.686;2023-03-01T20:07:43;6.40;99.90
48535;DHT22;34323;52.022;5.686;2023-03-01T20:10:09;6.30;99.90
48535;DHT22;34323;52.022;5.686;2023-03-01T20:12:36;6.20;99.90
48535;DHT22;34323;52.022;5.686;2023-03-01T20:15:01;6.10;99.90
48535;DHT22;34323;52.022;5.686;2023-03-01T20:17:27;5.90;99.90
48535;DHT22;34323;52.022;5.686;2023-03-01T20:19:53;5.80;99.90
48535;DHT22;34323;52.022;5.686;2023-03-01T20:22:18;5.80;99.90
48535;DHT22;34323;52.022;5.686;2023-03-01T20:24:44;5.90;99.90
48535;DHT22;34323;52.022;5.686;2023-03-01T20:27:09;5.90;99.90
48535;DHT22;34323;52.022;5.686;2023-03-01T20:29:35;5.80;99.90
48535;DHT22;34323;52.022;5.686;2023-03-01T20:32:01;6.00;99.90
48535;DHT22;34323;52.022;5.686;2023-03-01T20:34:27;6.00;99.90
48535;DHT22;34323;52.022;5.686;2023-03-01T20:36:52;5.90;99.90
48535;DHT22;34323;52.022;5.686;2023-03-01T20:39:18;5.70;99.90
48535;DHT22;34323;52.022;5.686;2023-03-01T20:41:44;5.80;99.90
48535;DHT22;34323;52.022;5.686;2023-03-01T20:44:10;5.80;99.90
48535;DHT22;34323;52.022;5.686;2023-03-01T20:46:36;5.90;99.90
48535;DHT22;34323;52.022;5.686;2023-03-01T20:49:03;5.90;99.90
48535;DHT22;34323;52.022;5.686;2023-03-01T20:51:29;6.00;99.90
48535;DHT22;34323;52.022;5.686;2023-03-01T20:53:55;6.00;99.90